createdAt,value
2023-08-06T00:01:13.010Z,25.15
2023-08-06T00:03:41.977Z,25.08
2023-08-06T00:06:10.045Z,25.10
2023-08-06T00:08:37.514Z,25.00
2023-08-06T00:11:04.851Z,24.95
2023-08-06T00:13:32.240Z,25.01
2023-08-06T00:16:19.723Z,24.98
2023-08-06T00:18:47.194Z,25.00
2023-08-06T00:21:14.652Z,24.97
2023-08-06T00:23:42.765Z,24.95
2023-08-06T00:26:10.031Z,24.95
2023-08-06T00:28:37.421Z,24.87
2023-08-06T00:31:04.836Z,24.72
2023-08-06T00:33:32.232Z,24.74
2023-08-06T00:35:59.514Z,24.76
2023-08-06T00:38:26.820Z,24.77
2023-08-06T00:40:54.623Z,24.77
2023-08-06T00:43:22.040Z,24.68
2023-08-06T00:45:49.552Z,24.66
2023-08-06T00:48:17.738Z,24.68
2023-08-06T00:50:45.140Z,24.64
2023-08-06T00:53:12.577Z,24.61
2023-08-06T00:55:43.214Z,24.60
2023-08-06T00:58:11.212Z,24.55
2023-08-06T01:00:39.225Z,24.54
2023-08-06T01:03:06.667Z,24.53
2023-08-06T01:05:34.254Z,24.52
2023-08-06T01:08:20.677Z,24.48
2023-08-06T01:11:10.985Z,24.46
2023-08-06T01:13:50.834Z,24.51
2023-08-06T01:16:25.370Z,24.41
2023-08-06T01:18:52.935Z,24.50
2023-08-06T01:21:20.672Z,24.43
2023-08-06T01:23:49.177Z,24.47
2023-08-06T01:26:34.548Z,24.48
2023-08-06T01:29:18.387Z,24.48
2023-08-06T01:31:49.635Z,24.48
2023-08-06T01:34:29.108Z,24.46
2023-08-06T01:36:57.313Z,24.47
2023-08-06T01:39:24.809Z,24.43
2023-08-06T01:41:52.433Z,24.43
2023-08-06T01:44:20.154Z,24.43
2023-08-06T01:46:47.614Z,24.48
2023-08-06T01:49:14.913Z,24.47
2023-08-06T01:51:42.303Z,24.44
2023-08-06T01:54:09.714Z,24.40
2023-08-06T01:56:37.105Z,24.43
2023-08-06T01:59:05.485Z,24.44
2023-08-06T02:01:33.212Z,24.38
2023-08-06T02:04:00.723Z,24.30
2023-08-06T02:06:28.080Z,24.31
2023-08-06T02:08:56.275Z,24.35
2023-08-06T02:11:23.521Z,24.39
2023-08-06T02:13:50.930Z,24.34
2023-08-06T02:16:19.969Z,24.38
2023-08-06T02:18:47.378Z,24.33
2023-08-06T02:21:14.672Z,24.30
2023-08-06T02:23:41.957Z,24.30
2023-08-06T02:26:11.379Z,24.32
2023-08-06T02:28:38.822Z,24.34
2023-08-06T02:31:08.100Z,24.31
2023-08-06T02:33:38.250Z,24.39
2023-08-06T02:36:06.104Z,24.44
2023-08-06T02:38:34.154Z,24.41
2023-08-06T02:41:05.456Z,24.46
2023-08-06T02:43:33.348Z,24.49
2023-08-06T02:46:01.658Z,24.46
2023-08-06T02:48:29.599Z,24.42
2023-08-06T02:51:00.946Z,24.44
2023-08-06T02:53:30.479Z,24.47
2023-08-06T02:56:00.238Z,24.52
2023-08-06T02:58:35.693Z,24.47
2023-08-06T03:01:15.989Z,24.51
2023-08-06T03:03:49.546Z,24.55
2023-08-06T03:06:23.454Z,24.55
2023-08-06T03:08:54.380Z,24.62
2023-08-06T03:11:21.871Z,24.65
2023-08-06T03:13:52.408Z,24.67
2023-08-06T03:16:19.880Z,24.65
2023-08-06T03:18:47.266Z,24.71
2023-08-06T03:21:15.368Z,24.71
2023-08-06T03:23:43.491Z,24.73
2023-08-06T03:26:11.012Z,24.78
2023-08-06T03:28:39.100Z,24.84
2023-08-06T03:31:06.967Z,24.90
2023-08-06T03:33:42.207Z,24.93
2023-08-06T03:36:14.575Z,24.98
2023-08-06T03:38:43.141Z,24.99
2023-08-06T03:41:12.907Z,25.06
2023-08-06T03:43:40.723Z,25.09
2023-08-06T03:46:12.392Z,25.10
2023-08-06T03:48:39.902Z,25.17
2023-08-06T03:51:07.223Z,25.20
2023-08-06T03:53:35.243Z,25.31
2023-08-06T03:56:03.677Z,25.21
2023-08-06T03:58:32.105Z,25.21
2023-08-06T04:01:01.153Z,25.26
2023-08-06T04:03:32.910Z,25.23
2023-08-06T04:06:02.272Z,25.30
2023-08-06T04:08:29.702Z,25.36
2023-08-06T04:10:57.671Z,25.36
2023-08-06T04:13:25.084Z,25.39
2023-08-06T04:15:52.469Z,25.44
2023-08-06T04:18:20.408Z,25.50
2023-08-06T04:20:50.621Z,25.48
2023-08-06T04:23:18.109Z,25.52
2023-08-06T04:25:45.601Z,25.63
2023-08-06T04:28:14.486Z,25.73
2023-08-06T04:30:41.886Z,25.84
2023-08-06T04:33:09.825Z,25.89
2023-08-06T04:35:37.181Z,25.89
2023-08-06T04:38:04.668Z,25.92
2023-08-06T04:40:35.321Z,25.92
2023-08-06T04:43:02.851Z,26.03
2023-08-06T04:45:33.320Z,26.10
2023-08-06T04:48:00.677Z,26.27
2023-08-06T04:50:28.057Z,26.33
2023-08-06T04:52:55.667Z,26.42
2023-08-06T04:55:23.067Z,26.42
2023-08-06T04:57:50.370Z,26.43
2023-08-06T05:00:17.787Z,26.54
2023-08-06T05:02:45.340Z,26.48
2023-08-06T05:05:12.824Z,26.54
2023-08-06T05:07:40.246Z,26.50
2023-08-06T05:10:08.145Z,26.44
2023-08-06T05:12:35.624Z,26.52
2023-08-06T05:15:03.032Z,26.58
2023-08-06T05:17:30.615Z,26.60
2023-08-06T05:19:58.100Z,26.66
2023-08-06T05:22:25.547Z,26.67
2023-08-06T05:24:52.965Z,26.69
2023-08-06T05:27:20.319Z,26.89
2023-08-06T05:29:49.212Z,26.94
2023-08-06T05:32:16.567Z,27.02
2023-08-06T05:34:43.903Z,27.11
2023-08-06T05:37:11.257Z,27.20
2023-08-06T05:39:38.621Z,27.20
2023-08-06T05:42:06.500Z,27.27
2023-08-06T05:44:34.070Z,27.37
2023-08-06T05:47:01.448Z,27.45
2023-08-06T05:49:29.061Z,27.54
2023-08-06T05:51:56.487Z,27.76
2023-08-06T05:54:23.878Z,27.89
2023-08-06T05:56:51.231Z,27.97
2023-08-06T05:59:18.581Z,28.02
2023-08-06T06:01:45.988Z,28.12
2023-08-06T06:04:13.347Z,28.19
2023-08-06T06:06:42.773Z,28.25
2023-08-06T06:09:10.162Z,28.32
2023-08-06T06:11:37.791Z,28.51
2023-08-06T06:14:05.081Z,28.60
2023-08-06T06:16:32.408Z,28.66
2023-08-06T06:18:59.732Z,28.71
2023-08-06T06:21:27.080Z,28.79
2023-08-06T06:23:54.527Z,28.98
2023-08-06T06:26:21.899Z,29.05
2023-08-06T06:28:49.336Z,29.14
2023-08-06T06:31:16.684Z,29.12
2023-08-06T06:33:44.070Z,29.20
2023-08-06T06:36:11.865Z,29.16
2023-08-06T06:38:39.735Z,29.34
2023-08-06T06:41:07.076Z,29.46
2023-08-06T06:43:34.302Z,29.58
2023-08-06T06:46:01.961Z,29.75
2023-08-06T06:48:33.668Z,29.89
2023-08-06T06:51:01.333Z,29.95
2023-08-06T06:53:29.862Z,30.00
2023-08-06T06:56:05.140Z,30.01
2023-08-06T06:58:33.464Z,30.10
2023-08-06T07:01:01.074Z,30.12
2023-08-06T07:03:29.012Z,30.27
2023-08-06T07:06:00.257Z,30.35
2023-08-06T07:08:27.863Z,30.55
2023-08-06T07:11:06.025Z,30.59
2023-08-06T07:13:36.182Z,30.68
2023-08-06T07:16:04.228Z,30.78
2023-08-06T07:18:31.703Z,31.03
2023-08-06T07:20:58.935Z,31.16
2023-08-06T07:23:27.239Z,31.48
2023-08-06T07:25:54.712Z,31.72
2023-08-06T07:28:22.088Z,31.78
2023-08-06T07:30:49.521Z,31.90
2023-08-06T07:33:17.099Z,32.12
2023-08-06T07:35:44.619Z,32.24
2023-08-06T07:38:11.999Z,32.34
2023-08-06T07:40:40.263Z,32.45
2023-08-06T07:43:07.747Z,32.64
2023-08-06T07:45:36.786Z,32.75
2023-08-06T07:48:04.614Z,32.83
2023-08-06T07:50:32.402Z,32.92
2023-08-06T07:52:59.820Z,33.04
2023-08-06T07:55:27.182Z,33.21
2023-08-06T07:57:55.128Z,33.30
2023-08-06T08:00:22.587Z,33.36
2023-08-06T08:02:49.950Z,33.51
2023-08-06T08:05:17.785Z,33.60
2023-08-06T08:07:45.575Z,33.68
2023-08-06T08:10:12.938Z,33.70
2023-08-06T08:12:40.399Z,33.67
2023-08-06T08:15:08.079Z,33.80
2023-08-06T08:17:36.000Z,33.79
2023-08-06T08:20:04.237Z,33.83
2023-08-06T08:22:31.924Z,33.82
2023-08-06T08:24:59.354Z,33.95
2023-08-06T08:27:27.423Z,33.96
2023-08-06T08:29:54.822Z,34.03
2023-08-06T08:32:22.049Z,34.08
2023-08-06T08:34:49.295Z,34.18
2023-08-06T08:37:16.776Z,34.26
2023-08-06T08:39:44.195Z,34.36
2023-08-06T08:42:11.926Z,34.39
2023-08-06T08:44:40.775Z,34.46
2023-08-06T08:47:10.381Z,34.55
2023-08-06T08:49:39.456Z,34.50
2023-08-06T08:52:07.794Z,34.54
2023-08-06T08:54:40.191Z,34.58
2023-08-06T08:57:07.531Z,34.64
2023-08-06T08:59:35.370Z,34.66
2023-08-06T09:02:03.312Z,34.76
2023-08-06T09:04:36.873Z,34.88
2023-08-06T09:07:07.247Z,34.93
2023-08-06T09:09:38.994Z,34.96
2023-08-06T09:12:15.105Z,34.96
2023-08-06T09:14:43.169Z,35.01
2023-08-06T09:17:13.894Z,34.94
2023-08-06T09:19:49.349Z,34.95
2023-08-06T09:22:16.913Z,35.03
2023-08-06T09:24:44.486Z,35.12
2023-08-06T09:27:15.570Z,35.10
2023-08-06T09:29:44.498Z,35.18
2023-08-06T09:32:15.012Z,35.24
2023-08-06T09:34:45.306Z,35.26
2023-08-06T09:37:12.802Z,35.31
2023-08-06T09:39:44.311Z,35.41
2023-08-06T09:42:11.666Z,35.50
2023-08-06T09:44:42.181Z,35.56
2023-08-06T09:47:09.557Z,35.71
2023-08-06T09:49:36.771Z,35.86
2023-08-06T09:52:05.193Z,35.87
2023-08-06T09:54:35.550Z,35.80
2023-08-06T09:57:03.521Z,35.75
2023-08-06T09:59:31.228Z,35.83
2023-08-06T10:01:59.271Z,35.96
2023-08-06T10:04:30.977Z,35.97
2023-08-06T10:07:06.083Z,36.05
2023-08-06T10:09:33.385Z,36.07
2023-08-06T10:12:02.263Z,36.00
2023-08-06T10:14:31.675Z,36.18
2023-08-06T10:17:00.870Z,36.26
2023-08-06T10:19:28.756Z,36.11
2023-08-06T10:22:13.915Z,36.18
2023-08-06T10:24:58.601Z,36.17
2023-08-06T10:27:35.223Z,36.24
2023-08-06T10:30:45.274Z,36.30
2023-08-06T10:33:13.033Z,36.65
2023-08-06T10:35:45.304Z,36.52
2023-08-06T10:38:20.090Z,36.33
2023-08-06T10:41:11.433Z,36.24
2023-08-06T10:43:44.664Z,36.30
2023-08-06T10:46:22.211Z,36.29
2023-08-06T10:48:50.557Z,36.34
2023-08-06T10:51:18.162Z,36.37
2023-08-06T10:53:47.726Z,36.45
2023-08-06T10:56:15.548Z,36.70
2023-08-06T10:58:43.931Z,36.82
2023-08-06T11:01:12.583Z,36.94
2023-08-06T11:03:40.982Z,36.83
2023-08-06T11:06:09.278Z,36.70
2023-08-06T11:08:48.092Z,36.67
2023-08-06T11:11:16.096Z,36.73
2023-08-06T11:13:47.716Z,36.61
2023-08-06T11:16:21.146Z,36.70
2023-08-06T11:18:48.998Z,36.77
2023-08-06T11:21:20.547Z,36.96
2023-08-06T11:23:47.990Z,37.21
2023-08-06T11:26:21.117Z,37.11
2023-08-06T11:28:48.613Z,37.08
2023-08-06T11:31:23.211Z,37.23
2023-08-06T11:33:55.279Z,37.16
2023-08-06T11:36:33.405Z,37.28
2023-08-06T11:39:01.839Z,37.34
2023-08-06T11:41:30.660Z,37.46
2023-08-06T11:43:58.293Z,37.17
2023-08-06T11:46:26.629Z,37.21
2023-08-06T11:48:58.510Z,37.26
2023-08-06T11:51:29.490Z,37.17
2023-08-06T11:54:00.791Z,37.31
2023-08-06T11:56:29.023Z,37.14
2023-08-06T11:58:56.841Z,37.12
2023-08-06T12:01:24.359Z,37.24
2023-08-06T12:03:51.743Z,37.45
2023-08-06T12:06:19.265Z,37.30
2023-08-06T12:08:46.586Z,37.07
2023-08-06T12:11:13.895Z,37.14
2023-08-06T12:13:41.283Z,37.06
2023-08-06T12:16:08.486Z,37.12
2023-08-06T12:18:35.859Z,37.24
2023-08-06T12:21:03.195Z,37.22
2023-08-06T12:23:31.011Z,37.15
2023-08-06T12:25:59.710Z,37.25
2023-08-06T12:28:26.976Z,37.38
2023-08-06T12:30:56.545Z,37.29
2023-08-06T12:33:23.874Z,37.23
2023-08-06T12:35:51.223Z,37.16
2023-08-06T12:38:18.491Z,37.31
2023-08-06T12:40:48.958Z,37.44
2023-08-06T12:43:16.250Z,37.58
2023-08-06T12:45:43.467Z,37.42
2023-08-06T12:48:10.881Z,37.33
2023-08-06T12:50:38.261Z,37.39
2023-08-06T12:53:06.732Z,37.46
2023-08-06T12:55:34.121Z,37.53
2023-08-06T12:58:01.454Z,37.66
2023-08-06T13:00:28.914Z,37.48
2023-08-06T13:02:56.910Z,37.50
2023-08-06T13:05:24.641Z,37.57
2023-08-06T13:07:52.053Z,37.62
2023-08-06T13:10:19.614Z,37.68
2023-08-06T13:12:47.208Z,37.61
2023-08-06T13:15:15.890Z,37.46
2023-08-06T13:17:43.204Z,37.56
2023-08-06T13:20:11.517Z,37.48
2023-08-06T13:22:39.060Z,37.51
2023-08-06T13:25:06.567Z,37.43
2023-08-06T13:27:33.933Z,37.50
2023-08-06T13:30:01.484Z,37.39
2023-08-06T13:32:29.892Z,37.39
2023-08-06T13:34:57.172Z,37.42
2023-08-06T13:37:24.571Z,37.41
2023-08-06T13:39:51.768Z,37.40
2023-08-06T13:42:19.127Z,37.36
2023-08-06T13:44:46.387Z,37.43
2023-08-06T13:47:13.587Z,37.37
2023-08-06T13:49:40.985Z,37.29
2023-08-06T13:52:20.090Z,37.37
2023-08-06T13:54:49.681Z,37.38
2023-08-06T13:57:18.655Z,37.46
2023-08-06T13:59:46.413Z,37.41
2023-08-06T14:02:13.821Z,37.21
2023-08-06T14:04:41.716Z,37.21
2023-08-06T14:07:09.288Z,37.05
2023-08-06T14:09:36.617Z,37.17
2023-08-06T14:12:04.481Z,37.16
2023-08-06T14:14:32.519Z,37.17
2023-08-06T14:17:00.278Z,37.15
2023-08-06T14:19:31.075Z,37.16
2023-08-06T14:21:58.769Z,37.20
2023-08-06T14:24:26.114Z,37.16
2023-08-06T14:26:53.730Z,37.07
2023-08-06T14:29:21.506Z,37.00
2023-08-06T14:31:48.749Z,37.06
2023-08-06T14:34:16.282Z,37.12
2023-08-06T14:36:43.826Z,37.13
2023-08-06T14:39:11.163Z,37.08
2023-08-06T14:41:38.363Z,37.08
2023-08-06T14:44:05.605Z,37.14
2023-08-06T14:46:32.886Z,37.10
2023-08-06T14:49:00.113Z,37.16
2023-08-06T14:51:27.421Z,37.08
2023-08-06T14:53:54.705Z,37.02
2023-08-06T14:56:22.010Z,37.04
2023-08-06T14:58:49.305Z,37.11
2023-08-06T15:01:16.556Z,37.15
2023-08-06T15:03:43.822Z,37.15
2023-08-06T15:06:16.446Z,37.16
2023-08-06T15:08:46.588Z,37.28
2023-08-06T15:11:17.056Z,37.27
2023-08-06T15:13:44.458Z,37.44
2023-08-06T15:16:11.696Z,37.74
2023-08-06T15:18:39.066Z,37.91
2023-08-06T15:21:06.303Z,38.23
2023-08-06T15:23:33.561Z,38.24
2023-08-06T15:26:00.928Z,38.28
2023-08-06T15:28:28.222Z,38.56
2023-08-06T15:30:57.260Z,38.57
2023-08-06T15:33:24.607Z,38.43
2023-08-06T15:35:51.863Z,38.78
2023-08-06T15:38:19.091Z,38.70
2023-08-06T15:40:46.710Z,38.66
2023-08-06T15:43:14.590Z,38.67
2023-08-06T15:45:41.806Z,38.52
2023-08-06T15:48:10.391Z,38.33
2023-08-06T15:50:39.454Z,38.57
2023-08-06T15:53:07.784Z,38.50
2023-08-06T15:55:38.617Z,38.19
2023-08-06T15:58:06.508Z,38.10
2023-08-06T16:00:34.580Z,37.75
2023-08-06T16:03:03.559Z,37.27
2023-08-06T16:05:32.291Z,36.64
2023-08-06T16:08:00.461Z,36.25
2023-08-06T16:10:28.084Z,35.88
2023-08-06T16:12:55.388Z,35.63
2023-08-06T16:15:22.697Z,35.36
2023-08-06T16:17:51.534Z,35.26
2023-08-06T16:20:19.106Z,35.07
2023-08-06T16:22:46.389Z,34.83
2023-08-06T16:25:14.481Z,34.68
2023-08-06T16:27:42.079Z,34.50
2023-08-06T16:30:10.026Z,34.42
2023-08-06T16:32:38.425Z,34.37
2023-08-06T16:35:08.014Z,34.26
2023-08-06T16:37:35.416Z,34.17
2023-08-06T16:40:05.051Z,34.08
2023-08-06T16:42:32.480Z,34.00
2023-08-06T16:44:59.711Z,33.92
2023-08-06T16:47:26.947Z,33.83
2023-08-06T16:49:54.507Z,33.68
2023-08-06T16:52:21.987Z,33.56
2023-08-06T16:54:50.378Z,33.52
2023-08-06T16:57:17.742Z,33.41
2023-08-06T16:59:45.042Z,33.37
2023-08-06T17:02:12.642Z,33.28
2023-08-06T17:04:39.990Z,33.19
2023-08-06T17:07:07.283Z,33.14
2023-08-06T17:09:34.659Z,33.08
2023-08-06T17:12:01.980Z,32.98
2023-08-06T17:14:29.387Z,32.95
2023-08-06T17:16:57.197Z,32.92
2023-08-06T17:19:24.915Z,32.78
2023-08-06T17:21:52.165Z,32.73
2023-08-06T17:24:19.639Z,32.67
2023-08-06T17:26:46.979Z,32.63
2023-08-06T17:29:14.303Z,32.51
2023-08-06T17:31:41.737Z,32.46
2023-08-06T17:34:09.015Z,32.42
2023-08-06T17:36:36.326Z,32.32
2023-08-06T17:39:03.633Z,32.26
2023-08-06T17:41:31.023Z,32.21
2023-08-06T17:43:58.396Z,32.07
2023-08-06T17:46:25.827Z,32.05
2023-08-06T17:48:57.786Z,31.94
2023-08-06T17:51:25.369Z,31.85
2023-08-06T17:53:52.702Z,31.81
2023-08-06T17:56:19.958Z,31.75
2023-08-06T17:58:47.270Z,31.71
2023-08-06T18:01:14.744Z,31.72
2023-08-06T18:03:42.324Z,31.64
2023-08-06T18:06:09.659Z,31.57
2023-08-06T18:08:36.911Z,31.55
2023-08-06T18:11:04.295Z,31.49
2023-08-06T18:13:31.647Z,31.43
2023-08-06T18:15:59.141Z,31.42
2023-08-06T18:18:26.598Z,31.41
2023-08-06T18:20:54.020Z,31.36
2023-08-06T18:23:21.407Z,31.29
2023-08-06T18:25:48.854Z,31.25
2023-08-06T18:28:16.190Z,31.15
2023-08-06T18:30:43.631Z,31.05
2023-08-06T18:33:11.148Z,31.04
2023-08-06T18:35:41.547Z,30.98
2023-08-06T18:38:09.447Z,30.96
2023-08-06T18:40:36.834Z,30.91
2023-08-06T18:43:04.170Z,30.82
2023-08-06T18:45:37.632Z,30.75
2023-08-06T18:48:05.057Z,30.70
2023-08-06T18:50:36.617Z,30.64
2023-08-06T18:53:05.049Z,30.58
2023-08-06T18:55:32.755Z,30.53
2023-08-06T18:58:04.154Z,30.47
2023-08-06T19:00:32.524Z,30.45
2023-08-06T19:02:59.828Z,30.39
2023-08-06T19:05:27.867Z,30.36
2023-08-06T19:07:55.106Z,30.32
2023-08-06T19:10:25.175Z,30.33
2023-08-06T19:12:53.137Z,30.27
2023-08-06T19:15:22.207Z,30.22
2023-08-06T19:17:49.767Z,30.19
2023-08-06T19:20:17.865Z,30.12
2023-08-06T19:22:47.271Z,30.05
2023-08-06T19:25:14.582Z,30.04
2023-08-06T19:27:42.517Z,30.01
2023-08-06T19:30:10.397Z,29.94
2023-08-06T19:32:37.901Z,29.91
2023-08-06T19:35:05.709Z,29.88
2023-08-06T19:37:34.136Z,29.85
2023-08-06T19:40:02.036Z,29.84
2023-08-06T19:42:29.742Z,29.79
2023-08-06T19:44:57.112Z,29.75
2023-08-06T19:47:24.438Z,29.75
2023-08-06T19:49:51.713Z,29.72
2023-08-06T19:52:19.065Z,29.69
2023-08-06T19:54:46.286Z,29.67
2023-08-06T19:57:13.644Z,29.69
2023-08-06T19:59:40.921Z,29.62
2023-08-06T20:02:08.173Z,29.61
2023-08-06T20:04:36.134Z,29.57
2023-08-06T20:07:03.897Z,29.61
2023-08-06T20:09:31.707Z,29.54
2023-08-06T20:12:04.163Z,29.48
2023-08-06T20:14:32.120Z,29.49
2023-08-06T20:16:59.387Z,29.42
2023-08-06T20:19:26.637Z,29.36
2023-08-06T20:21:54.362Z,29.36
2023-08-06T20:24:22.023Z,29.37
2023-08-06T20:26:49.314Z,29.36
2023-08-06T20:29:16.588Z,29.38
2023-08-06T20:31:43.877Z,29.32
2023-08-06T20:34:11.259Z,29.33
2023-08-06T20:36:38.518Z,29.26
2023-08-06T20:39:05.768Z,29.30
2023-08-06T20:41:33.134Z,29.24
2023-08-06T20:44:00.595Z,29.20
2023-08-06T20:46:27.922Z,29.11
2023-08-06T20:48:55.320Z,29.12
2023-08-06T20:51:22.743Z,29.09
2023-08-06T20:53:50.308Z,29.08
2023-08-06T20:56:18.975Z,29.05
2023-08-06T20:58:46.236Z,29.03
2023-08-06T21:01:13.616Z,28.99
2023-08-06T21:03:40.923Z,28.93
2023-08-06T21:06:08.763Z,28.89
2023-08-06T21:08:37.205Z,28.84
2023-08-06T21:11:05.284Z,28.82
2023-08-06T21:13:32.709Z,28.78
2023-08-06T21:16:04.695Z,28.78
2023-08-06T21:18:36.033Z,28.80
2023-08-06T21:21:05.067Z,28.77
2023-08-06T21:23:32.655Z,28.74
2023-08-06T21:26:00.840Z,28.69
2023-08-06T21:28:30.357Z,28.63
2023-08-06T21:31:02.586Z,28.54
2023-08-06T21:33:31.724Z,28.47
2023-08-06T21:36:02.869Z,28.34
2023-08-06T21:38:31.993Z,28.40
2023-08-06T21:41:08.765Z,28.42
2023-08-06T21:43:38.278Z,28.36
2023-08-06T21:46:08.669Z,28.32
2023-08-06T21:48:37.880Z,28.25
2023-08-06T21:51:07.501Z,28.20
2023-08-06T21:53:36.684Z,28.27
2023-08-06T21:56:06.533Z,28.17
2023-08-06T21:58:34.880Z,28.13
2023-08-06T22:01:03.778Z,28.04
2023-08-06T22:03:32.526Z,28.06
2023-08-06T22:06:00.275Z,28.00
2023-08-06T22:08:27.891Z,28.05
2023-08-06T22:10:58.636Z,27.97
2023-08-06T22:13:26.335Z,27.88
2023-08-06T22:15:54.044Z,27.87
2023-08-06T22:18:21.282Z,27.93
2023-08-06T22:20:49.360Z,27.88
2023-08-06T22:23:16.762Z,27.92
2023-08-06T22:25:43.971Z,27.91
2023-08-06T22:28:14.034Z,27.88
2023-08-06T22:30:41.778Z,27.85
2023-08-06T22:33:09.290Z,27.93
2023-08-06T22:35:36.654Z,27.88
2023-08-06T22:38:03.952Z,27.86
2023-08-06T22:40:31.392Z,27.94
2023-08-06T22:42:58.622Z,28.02
2023-08-06T22:45:25.911Z,28.03
2023-08-06T22:47:53.229Z,28.05
2023-08-06T22:50:20.613Z,28.01
2023-08-06T22:52:47.854Z,28.01
2023-08-06T22:55:28.875Z,27.98
2023-08-06T22:58:02.469Z,27.94
2023-08-06T23:00:29.901Z,27.90
2023-08-06T23:03:09.192Z,27.86
2023-08-06T23:05:39.072Z,27.82
2023-08-06T23:08:06.907Z,27.78
2023-08-06T23:10:34.758Z,27.74
2023-08-06T23:13:01.994Z,27.69
2023-08-06T23:15:29.422Z,27.67
2023-08-06T23:17:56.698Z,27.65
2023-08-06T23:20:24.054Z,27.65
2023-08-06T23:22:51.293Z,27.62
2023-08-06T23:25:18.544Z,27.67
2023-08-06T23:27:45.823Z,27.66
2023-08-06T23:30:13.439Z,27.59
2023-08-06T23:32:41.918Z,27.59
2023-08-06T23:35:10.101Z,27.50
2023-08-06T23:37:37.488Z,27.56
2023-08-06T23:40:06.189Z,27.53
2023-08-06T23:42:33.736Z,27.54
2023-08-06T23:45:00.957Z,27.55
2023-08-06T23:47:29.669Z,27.57
2023-08-06T23:49:57.117Z,27.49
2023-08-06T23:52:24.393Z,27.47
2023-08-06T23:54:51.755Z,27.53
2023-08-06T23:57:19.012Z,27.48
2023-08-06T23:59:46.194Z,27.37
